WetterOnline ( https://www.wetteronline.ch )

Wetter aktuell Schwäbisch-Hall

Aktuelles Wetter: Kaisersbach-Cronhütte (489m)

6-stündlich | Neueste Meldungen
Ortszeit Temperatur Wetter
Di, 23.07. 20:00 29.4° C wolkig
Di, 23.07. 14:00 29.5° C leicht bewölkt
Di, 23.07. 8:00 18.6° C wolkenlos
Di, 23.07. 2:00 13.8° C wolkig
Mo, 22.07. 20:00 25.7° C leicht bewölkt
Mo, 22.07. 14:00 26.0° C leicht bewölkt
Mo, 22.07. 8:00 15.5° C wolkig
Mo, 22.07. 2:00 13.9° C wolkig
Ortszeit Temperatur Wetter
Di, 23.07. 22:00 22.3° C wolkenlos
Di, 23.07. 21:50 22.3° C wolkenlos
Di, 23.07. 21:40 22.7° C wolkenlos
Di, 23.07. 21:30 23.4° C fast wolkenlos
Di, 23.07. 21:20 23.4° C fast wolkenlos
Di, 23.07. 21:10 24.3° C leicht bewölkt
Di, 23.07. 21:00 25.5° C wolkig
Di, 23.07. 20:30 27.2° C wolkig
Di, 23.07. 20:00 29.4° C wolkig
Di, 23.07. 19:30 30.7° C wolkig
Di, 23.07. 19:00 30.9° C leicht bewölkt
Ortszeit Relative Feuchte Sichtweite
Di, 23.07. 20:00 36% 70 km
Di, 23.07. 14:00 31% 60 km
Di, 23.07. 8:00 72% 40 km
Di, 23.07. 2:00 82% 50 km
Mo, 22.07. 20:00 41% 60 km
Mo, 22.07. 14:00 46% 35 km
Mo, 22.07. 8:00 86% 22 km
Mo, 22.07. 2:00 94% 30 km
Ortszeit Relative Feuchte Sichtweite
Di, 23.07. 22:00 58% 70 km
Di, 23.07. 21:50 58% -
Di, 23.07. 21:40 56% -
Di, 23.07. 21:30 53% 70 km
Di, 23.07. 21:20 53% -
Di, 23.07. 21:10 49% -
Di, 23.07. 21:00 45% 70 km
Di, 23.07. 20:30 41% 70 km
Di, 23.07. 20:00 36% 70 km
Di, 23.07. 19:30 31% 70 km
Di, 23.07. 19:00 29% 55 km
Ortszeit Niederschlagsmenge Niederschlagsart
Di, 23.07. 20:00 0.0 l/m2 in 12 Std. -
Di, 23.07. 14:00 0.0 l/m2 in 6 Std. -
Di, 23.07. 8:00 0.0 l/m2 in 12 Std. -
Di, 23.07. 2:00 0.0 l/m2 in 6 Std. -
Mo, 22.07. 20:00 0.0 l/m2 in 12 Std. -
Mo, 22.07. 14:00 0.0 l/m2 in 6 Std. -
Mo, 22.07. 8:00 0.0 l/m2 in 12 Std. -
Mo, 22.07. 2:00 0.0 l/m2 in 6 Std. -
Ortszeit Niederschlagsmenge Niederschlagsart
Di, 23.07. 22:00 0.0 l/m2 in 1 Std. -
Di, 23.07. 21:50 keine Meldung -
Di, 23.07. 21:40 keine Meldung -
Di, 23.07. 21:30 0.0 l/m2 in 1 Std. -
Di, 23.07. 21:20 keine Meldung -
Di, 23.07. 21:10 keine Meldung -
Di, 23.07. 21:00 0.0 l/m2 in 1 Std. -
Di, 23.07. 20:30 0.0 l/m2 in 1 Std. -
Di, 23.07. 20:00 0.0 l/m2 in 1 Std. -
Di, 23.07. 19:30 0.0 l/m2 in 1 Std. -
Di, 23.07. 19:00 0.0 l/m2 in 1 Std. -
Ortszeit Stärke Spitze Richtung
km/h Bft. km/h Grad Sektor
Di, 23.07. 20:00 7 2 18 60° NO
Di, 23.07. 14:00 7 2 22 100° O
Di, 23.07. 8:00 4 1 7 250° W
Di, 23.07. 2:00 0 0 11 - -
Mo, 22.07. 20:00 6 1 26 310° NW
Mo, 22.07. 14:00 13 3 24 270° W
Mo, 22.07. 8:00 2 1 4 110° O
Mo, 22.07. 2:00 0 0 11 - -
Ortszeit Stärke Spitze Richtung
km/h Bft. km/h Grad Sektor
Di, 23.07. 22:00 4 1 4 310° NW
Di, 23.07. 21:50 4 1 - 310° NW
Di, 23.07. 21:40 4 1 - 310° NW
Di, 23.07. 21:30 2 1 4 350° N
Di, 23.07. 21:20 2 1 - 350° N
Di, 23.07. 21:10 2 1 - 300° NW
Di, 23.07. 21:00 2 1 13 280° W
Di, 23.07. 20:30 4 1 11 80° O
Di, 23.07. 20:00 7 2 14 60° NO
Di, 23.07. 19:30 7 2 14 80° O
Di, 23.07. 19:00 11 2 18 90° O
Ortszeit Untergrenze Bedeckung Gattung
total tief tief mittel hoch
Di, 23.07. 20:00 10500 m 8/8 0/8 - - -
Di, 23.07. 14:00 12000 m 7/8 0/8 - - -
Di, 23.07. 8:00 - 0/8 0/8 - - -
Di, 23.07. 2:00 10500 m 7/8 0/8 - - -
Mo, 22.07. 20:00 7500 m 6/8 0/8 - - -
Mo, 22.07. 14:00 9000 m 8/8 0/8 - - -
Mo, 22.07. 8:00 10500 m 8/8 0/8 - - -
Mo, 22.07. 2:00 7800 m 8/8 0/8 - - -
Ortszeit Bedeckungsgrad in Achtel und Wolkenuntergrenze
Di, 23.07. 22:00 keine Wolken
Di, 23.07. 21:50 keine Wolken
Di, 23.07. 21:40 keine Wolken
Di, 23.07. 21:30 1(12000m)
Di, 23.07. 21:20 1(12000m)
Di, 23.07. 21:10 2(10500m) 3(12000m)
Di, 23.07. 21:00 8(10500m) 6(12000m)
Di, 23.07. 20:30 8(10500m)
Di, 23.07. 20:00 8(10500m)
Di, 23.07. 19:30 8(10500m)
Di, 23.07. 19:00 8(10500m)
Ortszeit Luftdruck NN (hPa) Tendenz (hPa in 3 Std.)
Di, 23.07. 20:00 1016 - 1,0
Di, 23.07. 14:00 1019 - 0,9
Di, 23.07. 8:00 1022 - 0,1
Di, 23.07. 2:00 1024 - 0,1
Mo, 22.07. 20:00 1021 - 0,5
Mo, 22.07. 14:00 1023 - 0,2
Mo, 22.07. 8:00 1025 + 0,5
Mo, 22.07. 2:00 1025 + 0,3
Ortszeit Luftdruck NN (hPa) Tendenz (hPa in 3 Std.)
Di, 23.07. 22:00 1018 - 0,2
Di, 23.07. 21:50 1018 keine Meldung
Di, 23.07. 21:40 1018 keine Meldung
Di, 23.07. 21:30 1017 - 0,4
Di, 23.07. 21:20 1017 keine Meldung
Di, 23.07. 21:10 1017 keine Meldung
Di, 23.07. 21:00 1017 - 0,7
Di, 23.07. 20:30 1017 - 0,9
Di, 23.07. 20:00 1016 - 1,0
Di, 23.07. 19:30 1016 - 1,1
Di, 23.07. 19:00 1016 - 1,3
Ortszeit Schneehöhe (cm)
Di, 23.07. 20:00 -
Di, 23.07. 14:00 -
Di, 23.07. 8:00 -
Di, 23.07. 2:00 -
Mo, 22.07. 20:00 -
Mo, 22.07. 14:00 -
Mo, 22.07. 8:00 -
Mo, 22.07. 2:00 -
Ortszeit Schneehöhe (cm)
Di, 23.07. 22:00 -
Di, 23.07. 21:50 -
Di, 23.07. 21:40 -
Di, 23.07. 21:30 -
Di, 23.07. 21:20 -
Di, 23.07. 21:10 -
Di, 23.07. 21:00 -
Di, 23.07. 20:30 -
Di, 23.07. 20:00 -
Di, 23.07. 19:30 -
Di, 23.07. 19:00 -
Link zu dieser Seite / Seite empfehlen

Das Wetter in ...